Tropical Cyclones
[Index]
Main Index Home Page Stock Weather Photos Extreme Storms Discussion Storm News and Storm Chasing Reports Tropical Cyclones / Hurricanes / Typhoons Weather Data and Links Wild Fires / Bushfires Weather Observation Techniques Weather Picture Catalogue Tornado Pictures and Reports Stock Video Footage and DVDs for sale
Season 1955-1956 Tropical Cyclone 195613 Track Map
Season 1955-1956 Summaries: [BoM-AU] [JTWC-AU] [JTWC-SIO] [JTWC-SPAC] [JTWC-SH]
<<- Previous TC | JTWC 1955-1956 Season | Next TC ->>

click for intensity scale information  Lat/long Grid: Show Hide

 Date Labels: Show Hide

Joint Typhoon Warning Centre Cyclone Data

Name: 195613
Number: 255 / 5613

20 Jan 1956 12:00 UTC to 29 Jan 1956 00:00 UTC

    date/time    lat    long     hPa   cat  kts
1956-01-20 12   18.9   148.3                              
1956-01-20 18   18.4   148.6                              
1956-01-21 00   18.0   149.0                              
1956-01-21 06   17.8   149.4                              
1956-01-21 12   17.6   149.9                              
1956-01-21 18   17.4   150.3                              
1956-01-22 00   17.3   150.7                              
1956-01-22 06   17.2   151.0                              
1956-01-22 12   17.2   151.4                              
1956-01-22 18   17.2   151.7                              
1956-01-23 00   17.2   152.1                              
1956-01-23 06   17.3   152.4                              
1956-01-23 12   17.5   152.8                              
1956-01-23 18   17.7   153.1                              
1956-01-24 00   18.0   153.4                              
1956-01-24 06   18.4   154.0                              
1956-01-24 12   18.8   154.6                              
1956-01-24 18   19.2   155.0                              
1956-01-25 00   19.6   155.5                              
1956-01-25 06   20.6   156.4                              
1956-01-25 12   22.0   157.4                              
1956-01-25 18   23.0   158.4                              
1956-01-26 00   24.0   159.0                              
1956-01-26 06   25.0   159.2                              
1956-01-26 12   26.0   159.5                              
1956-01-26 18   27.2   159.7                              
1956-01-27 00   28.2   160.0                              
1956-01-27 06   28.8   160.3                              
1956-01-27 12   29.5   160.7                              
1956-01-27 18   30.1   160.9                              
1956-01-28 00   30.8   161.2                              
1956-01-28 06   32.6   161.9                              
1956-01-28 12   35.0   163.0                              
1956-01-28 18   36.9   164.2                              
1956-01-29 00   38.6   165.5                              
Winds are 1-min average.

Tropical cyclone tracks developed by Michael Bath using data from the Joint Typhoon Warning Centre Best Tracks and Google Maps.


[Australian Severe Weather index] [Copyright Notice] [Email Contacts] [Search This Site] [Privacy Policy]
Document: tropical_cyclone_195613.htm Updated: 18 September 2016